Time;durP1;ratioP1;P1;durP2;ratioP2;P2;SDS_P1;SDS_P2;PMS_P1;PMS_P2;Temp;Humidity;BMP_temperature;BMP_pressure;BME280_temperature;BME280_humidity;BME280_pressure;Samples;Min_cycle;Max_cycle;Signal;HPM_P1;HPM_P2
2021/04/24 00:03:09;;;;;;;12.93;3.50;;;12.60;39.80;;;;;;9847761;29;20083;-74
2021/04/24 00:08:05;;;;;;;9.18;3.45;;;12.00;39.70;;;;;;9862498;29;20511;-76
2021/04/24 00:12:59;;;;;;;11.65;3.70;;;12.70;40.60;;;;;;9828411;29;20101;-75
2021/04/24 00:17:54;;;;;;;6.40;3.30;;;12.40;41.00;;;;;;9846788;29;20063;-75
2021/04/24 00:22:51;;;;;;;9.93;3.50;;;12.20;41.10;;;;;;9876144;29;20087;-76
2021/04/24 00:27:45;;;;;;;6.72;3.47;;;12.00;41.40;;;;;;9864349;29;20082;-77
2021/04/24 00:32:40;;;;;;;10.13;3.55;;;10.20;41.60;;;;;;9864171;29;20087;-75
2021/04/24 00:37:35;;;;;;;7.93;3.22;;;12.90;43.10;;;;;;9857860;29;20323;-76
2021/04/24 00:42:30;;;;;;;9.73;3.75;;;11.70;42.50;;;;;;9863109;29;20091;-77
2021/04/24 00:47:25;;;;;;;9.23;3.53;;;10.10;41.90;;;;;;9863192;29;20083;-76
2021/04/24 00:52:20;;;;;;;5.75;3.35;;;12.60;42.50;;;;;;9863416;29;20082;-76
2021/04/24 00:57:17;;;;;;;10.02;4.07;;;11.10;41.80;;;;;;9862397;29;20090;-75
2021/04/24 01:02:12;;;;;;;10.95;3.67;;;11.30;42.50;;;;;;9863354;29;20082;-76
2021/04/24 01:07:09;;;;;;;8.13;3.88;;;11.20;42.70;;;;;;9863035;29;20079;-76
2021/04/24 01:12:03;;;;;;;9.15;3.85;;;11.40;42.90;;;;;;9861401;29;20066;-75
2021/04/24 01:16:59;;;;;;;12.13;3.97;;;13.30;44.60;;;;;;9860790;29;20415;-76
2021/04/24 01:21:53;;;;;;;7.80;3.63;;;11.30;43.20;;;;;;9862030;29;20074;-76
2021/04/24 01:26:49;;;;;;;6.78;3.70;;;12.50;44.50;;;;;;9860601;29;20102;-77
2021/04/24 01:31:42;;;;;;;6.70;3.80;;;11.90;43.90;;;;;;9862456;29;20075;-75
2021/04/24 01:36:36;;;;;;;13.35;4.65;;;11.20;43.80;;;;;;9860293;29;20541;-75
2021/04/24 01:41:31;;;;;;;10.57;3.85;;;11.10;43.90;;;;;;9862000;29;20498;-75
2021/04/24 01:46:25;;;;;;;8.88;4.30;;;12.00;44.40;;;;;;9861626;29;20079;-75
2021/04/24 01:51:20;;;;;;;8.43;3.97;;;11.20;44.10;;;;;;9859859;29;20067;-75
2021/04/24 01:56:14;;;;;;;9.73;3.90;;;11.20;44.20;;;;;;9860499;29;20051;-76
2021/04/24 02:01:10;;;;;;;9.02;4.03;;;9.80;44.50;;;;;;9844580;29;20086;-76
2021/04/24 02:06:06;;;;;;;8.35;3.63;;;10.80;44.40;;;;;;9861211;29;20082;-76
2021/04/24 02:10:59;;;;;;;9.88;4.18;;;12.60;45.80;;;;;;9861525;29;20545;-75
2021/04/24 02:15:53;;;;;;;10.48;3.88;;;12.00;45.70;;;;;;9861107;29;20086;-77
2021/04/24 02:20:48;;;;;;;9.77;4.40;;;13.00;46.00;;;;;;9844240;29;20094;-76
2021/04/24 02:25:46;;;;;;;11.13;3.85;;;11.10;44.50;;;;;;9843111;29;20064;-77
2021/04/24 02:30:40;;;;;;;11.05;4.18;;;12.90;46.60;;;;;;9860506;29;20322;-77
2021/04/24 02:35:42;;;;;;;9.07;3.55;;;12.60;46.80;;;;;;9843641;29;20058;-75
2021/04/24 02:40:36;;;;;;;11.82;4.10;;;12.50;46.90;;;;;;9860789;29;20502;-75
2021/04/24 02:45:31;;;;;;;10.27;4.25;;;10.60;45.60;;;;;;9860733;29;20083;-75
2021/04/24 02:50:26;;;;;;;8.60;3.95;;;;;;;;;;9860464;29;20462;-76
2021/04/24 02:55:19;;;;;;;8.75;3.85;;;12.10;47.30;;;;;;9860235;29;20087;-76
2021/04/24 03:00:20;;;;;;;11.20;4.22;;;11.10;46.10;;;;;;9860044;29;20546;-75
2021/04/24 03:05:17;;;;;;;9.27;3.97;;;;;;;;;;9862299;29;20132;-77
2021/04/24 03:10:13;;;;;;;7.93;4.03;;;10.80;46.20;;;;;;9866902;29;20477;-75
2021/04/24 03:15:09;;;;;;;10.07;4.13;;;10.70;46.20;;;;;;9850153;29;20060;-76
2021/04/24 03:20:08;;;;;;;7.95;4.57;;;9.70;45.60;;;;;;9862467;29;20378;-76
2021/04/24 03:25:04;;;;;;;11.23;4.10;;;10.90;47.50;;;;;;9835002;29;20085;-75
2021/04/24 03:29:58;;;;;;;10.45;3.85;;;;;;;;;;9849608;29;20079;-76
2021/04/24 03:34:52;;;;;;;11.27;3.97;;;;;;;;;;9866494;29;20090;-77
2021/04/24 03:39:46;;;;;;;10.50;4.10;;;;;;;;;;9865975;29;20051;-77
2021/04/24 03:44:41;;;;;;;10.90;4.28;;;9.50;46.80;;;;;;9866661;29;20513;-76
2021/04/24 03:49:40;;;;;;;9.98;4.10;;;10.70;47.60;;;;;;9866398;29;20094;-75
2021/04/24 03:54:34;;;;;;;7.53;4.10;;;10.90;48.20;;;;;;9848647;29;20056;-76
2021/04/24 03:59:27;;;;;;;8.02;4.18;;;10.50;48.00;;;;;;9865366;29;20078;-75
2021/04/24 04:04:23;;;;;;;9.13;4.30;;;10.90;47.50;;;;;;9865124;29;20083;-76
2021/04/24 04:09:19;;;;;;;10.32;4.65;;;9.50;47.60;;;;;;9865360;29;20086;-76
2021/04/24 04:14:13;;;;;;;13.27;4.75;;;10.90;47.70;;;;;;9847423;29;20079;-75
2021/04/24 04:19:07;;;;;;;11.20;4.80;;;10.70;47.50;;;;;;9863696;29;20083;-76
2021/04/24 04:24:02;;;;;;;8.93;4.70;;;9.90;47.70;;;;;;9864270;29;20632;-75
2021/04/24 04:28:57;;;;;;;10.50;5.00;;;10.60;49.00;;;;;;9847942;29;20079;-75
2021/04/24 04:33:51;;;;;;;9.40;5.00;;;9.30;48.30;;;;;;9864420;29;20089;-76
2021/04/24 04:38:45;;;;;;;13.20;5.25;;;;;;;;;;9862809;29;20506;-77
2021/04/24 04:43:40;;;;;;;13.30;5.55;;;9.20;47.70;;;;;;9863625;29;20075;-76
2021/04/24 04:48:34;;;;;;;10.38;5.03;;;;;;;;;;9863129;29;20094;-75
2021/04/24 04:53:28;;;;;;;9.65;5.05;;;9.90;49.00;;;;;;9863024;29;20094;-74
2021/04/24 04:58:37;;;;;;;14.67;5.80;;;10.60;48.60;;;;;;9863443;29;20098;-76
2021/04/24 05:03:38;;;;;;;16.65;7.15;;;10.70;48.70;;;;;;9846381;29;20063;-75
2021/04/24 05:08:35;;;;;;;11.15;5.25;;;9.90;48.30;;;;;;9863056;29;20487;-76
2021/04/24 05:13:32;;;;;;;12.05;5.20;;;9.50;49.00;;;;;;9863041;29;20163;-75
2021/04/24 05:18:26;;;;;;;16.33;6.55;;;11.90;50.00;;;;;;9845328;29;20086;-76
2021/04/24 05:23:21;;;;;;;15.20;5.85;;;10.20;48.20;;;;;;9862729;29;20052;-76
2021/04/24 05:28:15;;;;;;;13.98;5.38;;;;;;;;;;9861916;29;20090;-75
2021/04/24 05:33:09;;;;;;;9.80;4.80;;;9.40;48.60;;;;;;9844669;29;20071;-75
2021/04/24 05:38:03;;;;;;;12.25;5.10;;;12.80;50.00;;;;;;9860706;29;20075;-76
2021/04/24 05:42:58;;;;;;;8.80;4.75;;;10.50;47.80;;;;;;9862263;29;20161;-76
2021/04/24 05:47:52;;;;;;;10.27;4.95;;;11.10;48.70;;;;;;9861951;29;20123;-76
2021/04/24 05:52:46;;;;;;;11.00;4.85;;;11.90;48.00;;;;;;9861248;29;20095;-76
2021/04/24 05:57:41;;;;;;;7.47;4.60;;;9.90;47.60;;;;;;9860951;29;20082;-76
2021/04/24 06:02:36;;;;;;;14.15;5.45;;;12.50;48.70;;;;;;9843955;29;20066;-76
2021/04/24 06:07:31;;;;;;;8.13;4.78;;;10.90;47.00;;;;;;9860762;29;20089;-75
2021/04/24 06:12:24;;;;;;;10.77;4.28;;;11.00;46.60;;;;;;9860850;29;20074;-75
2021/04/24 06:17:18;;;;;;;11.02;4.07;;;10.30;46.30;;;;;;9861608;29;20086;-74
2021/04/24 06:22:13;;;;;;;13.50;4.65;;;11.70;47.60;;;;;;9843307;29;20062;-75
2021/04/24 06:27:07;;;;;;;10.60;4.35;;;11.30;47.20;;;;;;9843753;29;20090;-76
2021/04/24 06:32:00;;;;;;;10.43;4.78;;;11.10;45.80;;;;;;9843349;29;20094;-76
2021/04/24 06:36:54;;;;;;;11.90;4.80;;;10.40;45.20;;;;;;9859744;29;20087;-74
2021/04/24 06:41:50;;;;;;;11.13;5.22;;;;;;;;;;9847637;29;20521;-76
2021/04/24 06:46:43;;;;;;;14.82;5.80;;;;;;;;;;9850774;29;20114;-76
2021/04/24 06:51:38;;;;;;;14.45;5.97;;;11.20;45.30;;;;;;9867985;29;20555;-76
2021/04/24 06:56:32;;;;;;;13.75;5.75;;;11.60;45.40;;;;;;9867297;29;20102;-76
2021/04/24 07:01:28;;;;;;;11.23;5.35;;;10.80;44.90;;;;;;9867429;29;20491;-77
2021/04/24 07:06:22;;;;;;;9.43;4.65;;;11.60;45.80;;;;;;9867016;29;20079;-75
2021/04/24 07:11:16;;;;;;;12.45;5.20;;;12.20;45.90;;;;;;9866471;29;20105;-76
2021/04/24 07:16:11;;;;;;;11.98;5.55;;;13.00;46.00;;;;;;9865202;29;20110;-76
2021/04/24 07:21:08;;;;;;;14.02;5.50;;;10.90;43.80;;;;;;9866218;29;20050;-75
2021/04/24 07:26:03;;;;;;;9.20;4.90;;;12.50;45.30;;;;;;9849416;29;20087;-76
2021/04/24 07:30:57;;;;;;;10.57;4.55;;;13.30;44.60;;;;;;9866068;29;20090;-75
2021/04/24 07:35:54;;;;;;;12.95;5.13;;;12.70;44.20;;;;;;9861283;29;20083;-76
2021/04/24 07:40:49;;;;;;;8.60;4.35;;;12.30;44.30;;;;;;9865185;29;20094;-76
2021/04/24 07:45:44;;;;;;;7.97;4.72;;;14.60;45.50;;;;;;9865138;29;20051;-76
2021/04/24 07:50:38;;;;;;;12.30;4.43;;;13.60;44.60;;;;;;9846201;29;20510;-78
2021/04/24 07:55:32;;;;;;;11.90;4.28;;;12.50;43.40;;;;;;9848896;29;20063;-79
2021/04/24 08:00:26;;;;;;;10.00;4.40;;;12.40;41.60;;;;;;9878613;29;20114;-78
2021/04/24 08:05:20;;;;;;;10.60;4.63;;;13.20;41.70;;;;;;9864704;29;20090;-80
2021/04/24 08:10:25;;;;;;;10.32;5.03;;;13.40;42.40;;;;;;9863318;29;20078;-77
2021/04/24 08:15:19;;;;;;;9.38;4.82;;;13.40;42.10;;;;;;9864306;29;20077;-78
2021/04/24 08:20:15;;;;;;;12.15;4.60;;;14.70;42.70;;;;;;9863790;29;20487;-77
2021/04/24 08:25:10;;;;;;;11.32;4.80;;;14.10;42.30;;;;;;9868399;29;20063;-76
2021/04/24 08:30:05;;;;;;;10.00;3.60;;;13.90;41.60;;;;;;9863056;29;20090;-77
2021/04/24 08:34:59;;;;;;;8.32;3.70;;;13.20;40.70;;;;;;9861780;29;20055;-78
2021/04/24 08:39:54;;;;;;;11.52;4.53;;;14.10;40.50;;;;;;9863597;29;20071;-79
2021/04/24 08:44:50;;;;;;;9.50;4.47;;;13.60;39.10;;;;;;9861801;29;20052;-81
2021/04/24 08:49:45;;;;;;;9.77;3.60;;;14.40;39.00;;;;;;9861299;29;20405;-78
2021/04/24 08:54:42;;;;;;;7.95;3.08;;;;;;;;;;9860084;29;20091;-79
2021/04/24 08:59:36;;;;;;;6.13;2.78;;;14.00;39.40;;;;;;9844594;29;20506;-78
2021/04/24 09:04:30;;;;;;;7.93;3.22;;;13.70;37.30;;;;;;9861279;29;20052;-78
2021/04/24 09:09:26;;;;;;;3.97;2.50;;;15.00;39.20;;;;;;9844380;29;20083;-80
2021/04/24 09:14:21;;;;;;;9.65;3.45;;;13.50;38.20;;;;;;9861969;29;20052;-77
2021/04/24 09:19:31;;;;;;;9.13;3.55;;;14.00;38.30;;;;;;9861648;29;20054;-78
2021/04/24 09:24:34;;;;;;;5.57;3.10;;;14.60;37.20;;;;;;9861824;29;20490;-77
2021/04/24 09:29:30;;;;;;;10.45;2.40;;;15.90;37.00;;;;;;9860594;29;20526;-79
2021/04/24 09:34:23;;;;;;;15.95;4.40;;;15.40;38.10;;;;;;9844849;29;20086;-80
2021/04/24 09:39:19;;;;;;;5.43;2.50;;;;;;;;;;9860263;29;20083;-78
2021/04/24 09:44:14;;;;;;;9.57;3.05;;;13.80;36.70;;;;;;9860900;29;20087;-75
2021/04/24 09:49:10;;;;;;;6.25;2.95;;;13.90;36.40;;;;;;9861444;29;20083;-76
2021/04/24 09:54:04;;;;;;;34.75;14.35;;;15.50;35.90;;;;;;9843675;29;20090;-76
2021/04/24 09:59:03;;;;;;;18.23;6.95;;;;;;;;;;9860717;29;20079;-73
2021/04/24 10:04:02;;;;;;;8.07;2.90;;;13.50;35.50;;;;;;9843637;29;20056;-72
2021/04/24 10:09:19;;;;;;;8.07;3.30;;;14.70;34.40;;;;;;9872291;29;20098;-72
2021/04/24 10:14:27;;;;;;;11.05;3.20;;;15.50;34.90;;;;;;9857688;29;20052;-71
2021/04/24 10:19:21;;;;;;;7.78;3.30;;;15.80;34.20;;;;;;9843043;29;20095;-71
2021/04/24 10:24:14;;;;;;;9.93;3.15;;;;;;;;;;9842775;29;20052;-72
2021/04/24 10:29:08;;;;;;;9.65;3.10;;;16.90;36.60;;;;;;9859050;29;20515;-72
2021/04/24 10:34:04;;;;;;;11.82;3.38;;;15.50;35.80;;;;;;9859718;29;20075;-73
2021/04/24 10:38:58;;;;;;;6.45;3.42;;;;;;;;;;9859545;29;20079;-72
2021/04/24 10:43:57;;;;;;;7.53;3.67;;;17.30;36.00;;;;;;9858868;29;20067;-72
2021/04/24 10:48:51;;;;;;;10.48;4.63;;;;;;;;;;9841696;29;20098;-71
2021/04/24 10:53:45;;;;;;;10.02;4.82;;;15.40;35.10;;;;;;9859448;29;20106;-72
2021/04/24 10:58:39;;;;;;;10.40;4.60;;;16.30;35.50;;;;;;9859694;29;20078;-71
2021/04/24 11:03:41;;;;;;;7.70;3.80;;;17.00;35.60;;;;;;9859491;29;20094;-71
2021/04/24 11:08:35;;;;;;;11.77;4.18;;;15.80;33.80;;;;;;9858647;29;20087;-72
2021/04/24 11:13:31;;;;;;;6.63;3.60;;;;;;;;;;9858842;29;20083;-71
2021/04/24 11:18:24;;;;;;;12.18;5.00;;;16.60;33.70;;;;;;9853720;29;20079;-72
2021/04/24 11:23:40;;;;;;;13.05;4.85;;;15.80;33.20;;;;;;9857395;29;20491;-71
2021/04/24 11:28:54;;;;;;;13.48;5.10;;;16.50;32.90;;;;;;9864393;29;20082;-70
2021/04/24 11:33:48;;;;;;;12.88;4.88;;;;;;;;;;9865932;29;20546;-73
2021/04/24 11:39:10;;;;;;;7.35;4.40;;;16.20;31.80;;;;;;9866037;29;20091;-72
2021/04/24 11:44:45;;;;;;;11.73;5.85;;;19.90;31.80;;;;;;9864924;29;20079;-73
2021/04/24 11:49:51;;;;;;;12.18;5.28;;;18.80;30.30;;;;;;9865070;29;20549;-74
2021/04/24 11:54:45;;;;;;;11.60;5.68;;;18.90;30.60;;;;;;9865030;29;20091;-72
2021/04/24 11:59:40;;;;;;;13.63;5.75;;;19.00;32.10;;;;;;9865019;29;20105;-74
2021/04/24 12:04:37;;;;;;;17.00;5.38;;;19.70;32.00;;;;;;9864768;29;20158;-73
2021/04/24 12:09:44;;;;;;;12.40;5.55;;;19.10;31.30;;;;;;9862556;28;20106;-71
2021/04/24 12:14:38;;;;;;;11.43;5.03;;;18.80;29.70;;;;;;9863976;29;20086;-72
2021/04/24 12:19:33;;;;;;;11.23;5.40;;;18.30;29.90;;;;;;9863830;29;20107;-72
2021/04/24 12:24:27;;;;;;;9.25;4.93;;;;;;;;;;9858994;29;20091;-74
2021/04/24 12:29:46;;;;;;;226.52;115.95;;;18.20;30.00;;;;;;9863936;29;20517;-75
2021/04/24 12:34:40;;;;;;;14.50;4.55;;;18.20;30.90;;;;;;9863816;29;20090;-73
2021/04/24 12:39:34;;;;;;;11.18;4.30;;;18.60;29.70;;;;;;9862393;29;20101;-74
2021/04/24 12:44:28;;;;;;;12.75;3.95;;;19.60;29.70;;;;;;9845713;29;20467;-74
2021/04/24 12:49:23;;;;;;;12.88;4.47;;;18.30;30.40;;;;;;9862574;29;20086;-74
2021/04/24 12:54:19;;;;;;;13.15;4.20;;;18.60;29.20;;;;;;9862305;29;20087;-74
2021/04/24 12:59:14;;;;;;;8.38;3.70;;;18.60;29.90;;;;;;9846018;29;20071;-74
2021/04/24 13:04:14;;;;;;;9.27;3.97;;;18.10;29.80;;;;;;9845652;29;20079;-73
2021/04/24 13:09:12;;;;;;;6.57;3.53;;;19.70;29.30;;;;;;9862397;29;20087;-74
2021/04/24 13:14:08;;;;;;;6.90;3.00;;;18.90;29.20;;;;;;9862285;29;20491;-74
2021/04/24 13:19:05;;;;;;;8.27;3.10;;;19.00;29.20;;;;;;9873554;29;20079;-73
2021/04/24 13:24:07;;;;;;;6.95;3.05;;;19.70;28.10;;;;;;9845103;29;20055;-74
2021/04/24 13:29:24;;;;;;;5.65;2.63;;;20.00;27.90;;;;;;9872562;29;20075;-74
2021/04/24 13:34:34;;;;;;;8.57;3.13;;;19.30;27.20;;;;;;9858076;29;20094;-74
2021/04/24 13:39:29;;;;;;;5.97;2.05;;;20.30;28.40;;;;;;9860502;29;20062;-75
2021/04/24 13:44:31;;;;;;;8.02;2.67;;;19.00;27.00;;;;;;9861244;29;20079;-73
2021/04/24 13:49:26;;;;;;;6.97;3.05;;;22.10;29.00;;;;;;9856790;29;20475;-80
2021/04/24 13:54:25;;;;;;;9.38;2.38;;;;;;;;;;9859885;29;20094;-79
2021/04/24 13:59:21;;;;;;;8.00;3.58;;;;;;;;;;9840101;29;20475;-77
2021/04/24 14:04:19;;;;;;;6.90;3.10;;;;;;;;;;9841438;29;20083;-79
2021/04/24 14:09:13;;;;;;;8.80;3.17;;;21.00;27.50;;;;;;9858920;29;20083;-78
2021/04/24 14:14:08;;;;;;;5.53;3.42;;;21.30;26.20;;;;;;9860555;29;20079;-78
2021/04/24 14:19:03;;;;;;;8.95;3.63;;;21.70;26.40;;;;;;9859404;29;20059;-79
2021/04/24 14:23:59;;;;;;;9.98;3.80;;;;;;;;;;9842840;29;20079;-78
2021/04/24 14:28:52;;;;;;;9.30;3.50;;;19.20;26.50;;;;;;9859777;29;20082;-78
2021/04/24 14:33:49;;;;;;;10.43;4.60;;;20.70;28.50;;;;;;9843070;29;20047;-76
2021/04/24 14:38:46;;;;;;;10.10;4.18;;;18.40;27.90;;;;;;9827674;29;20060;-78
2021/04/24 14:43:42;;;;;;;11.10;4.43;;;21.00;29.10;;;;;;9859638;29;20083;-81
2021/04/24 14:48:38;;;;;;;9.82;4.82;;;;;;;;;;9842536;29;20079;-79
2021/04/24 14:53:34;;;;;;;12.13;4.15;;;18.70;28.70;;;;;;9858680;29;20613;-80
2021/04/24 14:58:29;;;;;;;10.35;4.22;;;;;;;;;;9858134;29;20070;-79
2021/04/24 15:03:25;;;;;;;6.68;3.45;;;18.50;28.80;;;;;;9864247;29;20079;-78
2021/04/24 15:08:19;;;;;;;6.95;4.03;;;18.40;28.10;;;;;;9849332;29;20075;-78
2021/04/24 15:13:16;;;;;;;12.57;3.65;;;18.30;28.00;;;;;;9865482;29;20090;-78
2021/04/24 15:18:14;;;;;;;4.57;3.22;;;17.80;28.90;;;;;;9864857;29;20086;-79
2021/04/24 15:23:12;;;;;;;12.00;5.18;;;;;;;;;;9866835;29;20079;-77
2021/04/24 15:28:09;;;;;;;11.25;3.90;;;;;;;;;;9877508;29;20090;-78
2021/04/24 15:33:05;;;;;;;9.98;3.85;;;19.30;28.80;;;;;;9848651;29;20095;-75
2021/04/24 15:37:59;;;;;;;7.72;3.20;;;18.60;28.90;;;;;;9865093;29;20545;-73
2021/04/24 15:42:58;;;;;;;8.85;3.55;;;18.40;28.10;;;;;;9865285;29;20083;-74
2021/04/24 15:47:52;;;;;;;6.88;3.50;;;19.30;28.40;;;;;;9848703;29;20043;-79
2021/04/24 15:52:48;;;;;;;8.70;3.78;;;18.10;28.10;;;;;;9865198;29;20083;-76
2021/04/24 15:57:47;;;;;;;8.77;3.90;;;18.60;29.50;;;;;;9865014;29;20054;-82
2021/04/24 16:02:43;;;;;;;11.20;3.80;;;;;;;;;;9862500;29;20047;-82
2021/04/24 16:07:37;;;;;;;8.02;3.67;;;;;;;;;;9864996;29;20047;-80
2021/04/24 16:12:32;;;;;;;7.53;4.32;;;19.60;29.80;;;;;;9863849;29;20079;-77
2021/04/24 16:17:26;;;;;;;9.27;4.13;;;;;;;;;;9846758;29;20102;-74
2021/04/24 16:22:23;;;;;;;11.68;4.32;;;19.10;29.60;;;;;;9847803;29;20059;-76
2021/04/24 16:27:16;;;;;;;10.25;4.00;;;;;;;;;;9875976;29;20451;-75
2021/04/24 16:32:11;;;;;;;9.40;4.05;;;19.70;28.80;;;;;;9846901;29;20134;-77
2021/04/24 16:37:07;;;;;;;6.70;3.67;;;;;;;;;;9862216;28;20063;-77
2021/04/24 16:42:02;;;;;;;11.73;4.38;;;18.60;28.70;;;;;;9863161;29;20083;-75
2021/04/24 16:46:59;;;;;;;9.65;4.15;;;18.90;29.60;;;;;;9862716;29;20179;-76
2021/04/24 16:51:53;;;;;;;13.15;5.70;;;18.20;29.30;;;;;;9830473;29;20083;-75
2021/04/24 16:56:47;;;;;;;10.85;4.82;;;17.90;28.40;;;;;;9862056;29;20090;-75
2021/04/24 17:01:42;;;;;;;14.15;6.35;;;18.90;29.00;;;;;;9860826;29;20469;-77
2021/04/24 17:06:37;;;;;;;17.95;5.57;;;18.80;29.20;;;;;;9845598;29;20052;-76
2021/04/24 17:11:31;;;;;;;13.52;4.80;;;19.60;30.50;;;;;;9859961;29;20094;-75
2021/04/24 17:16:25;;;;;;;14.38;5.63;;;17.80;29.00;;;;;;9844796;29;20392;-75
2021/04/24 17:21:21;;;;;;;12.48;5.03;;;18.10;29.10;;;;;;9861129;29;20086;-76
2021/04/24 17:26:16;;;;;;;18.25;5.65;;;18.60;30.20;;;;;;9860445;29;20090;-76
2021/04/24 17:31:10;;;;;;;9.82;5.15;;;18.20;30.10;;;;;;9861311;29;20131;-75
2021/04/24 17:36:06;;;;;;;11.48;5.18;;;18.10;30.10;;;;;;9860439;29;20083;-76
2021/04/24 17:41:02;;;;;;;16.00;6.85;;;18.00;30.40;;;;;;9860541;28;20118;-75
2021/04/24 17:45:56;;;;;;;12.75;5.63;;;18.90;31.20;;;;;;9859977;29;20101;-75
2021/04/24 17:50:53;;;;;;;17.27;6.47;;;19.00;30.30;;;;;;9860899;29;20079;-75
2021/04/24 17:55:47;;;;;;;15.23;6.45;;;19.40;30.30;;;;;;9860627;29;20095;-76
2021/04/24 18:00:49;;;;;;;14.88;6.45;;;16.00;30.00;;;;;;9827401;29;20510;-76
2021/04/24 18:05:44;;;;;;;17.13;6.57;;;16.20;30.10;;;;;;9859863;29;20081;-76
2021/04/24 18:10:38;;;;;;;19.02;6.22;;;18.10;31.20;;;;;;9860942;29;20079;-76
2021/04/24 18:15:34;;;;;;;13.20;5.72;;;15.80;30.20;;;;;;9860890;29;20070;-77
2021/04/24 18:20:29;;;;;;;16.00;6.72;;;16.30;30.50;;;;;;9827791;29;20047;-76
2021/04/24 18:25:25;;;;;;;16.98;6.22;;;18.50;30.70;;;;;;9861179;29;20082;-76
2021/04/24 18:30:19;;;;;;;17.35;7.35;;;18.20;30.30;;;;;;9860602;29;20102;-75
2021/04/24 18:35:14;;;;;;;15.75;7.28;;;18.10;31.00;;;;;;9841577;29;20099;-78
2021/04/24 18:40:12;;;;;;;16.02;6.45;;;18.00;31.40;;;;;;9867557;29;20047;-77
2021/04/24 18:45:07;;;;;;;18.73;7.57;;;;;;;;;;9850104;29;20499;-78
2021/04/24 18:50:04;;;;;;;18.90;8.30;;;15.90;32.10;;;;;;9866428;29;20095;-77
2021/04/24 18:54:59;;;;;;;17.48;6.40;;;;;;;;;;9850301;29;20081;-75
2021/04/24 18:59:53;;;;;;;17.90;6.63;;;16.20;32.70;;;;;;9867382;29;20109;-76
2021/04/24 19:04:46;;;;;;;14.50;6.40;;;15.30;32.40;;;;;;9865904;29;20536;-77
2021/04/24 19:09:53;;;;;;;15.10;6.68;;;14.90;31.40;;;;;;9867465;29;20083;-78
2021/04/24 19:14:47;;;;;;;16.40;6.38;;;;;;;;;;9849740;29;20557;-77
2021/04/24 19:19:46;;;;;;;19.88;7.05;;;;;;;;;;9866626;29;20455;-78
2021/04/24 19:24:43;;;;;;;16.20;7.15;;;;;;;;;;9866435;29;20082;-78
2021/04/24 19:29:42;;;;;;;22.48;7.18;;;16.20;34.00;;;;;;9873914;29;20523;-75
2021/04/24 19:34:38;;;;;;;19.10;7.28;;;15.30;33.70;;;;;;9849131;29;20102;-76
2021/04/24 19:39:33;;;;;;;18.02;6.70;;;16.10;33.80;;;;;;9864183;29;20056;-76
2021/04/24 19:44:27;;;;;;;21.40;7.65;;;17.50;35.00;;;;;;9864955;29;20075;-77
2021/04/24 19:49:21;;;;;;;19.45;7.28;;;15.60;34.10;;;;;;9848533;29;20486;-76
2021/04/24 19:54:16;;;;;;;15.52;6.60;;;15.00;35.00;;;;;;9848406;29;20509;-77
2021/04/24 19:59:13;;;;;;;21.95;7.40;;;16.30;35.10;;;;;;9848815;29;20079;-75
2021/04/24 20:04:08;;;;;;;18.67;7.15;;;;;;;;;;9848552;29;20549;-77
2021/04/24 20:09:05;;;;;;;19.15;6.88;;;17.70;36.60;;;;;;9865356;29;20060;-77
2021/04/24 20:14:00;;;;;;;18.58;7.22;;;15.00;36.10;;;;;;9877016;29;20517;-77
2021/04/24 20:18:55;;;;;;;20.83;6.80;;;;;;;;;;9858579;29;20076;-76
2021/04/24 20:23:49;;;;;;;15.98;6.43;;;;;;;;;;9827448;29;20455;-77
2021/04/24 20:28:44;;;;;;;19.17;7.53;;;;;;;;;;9856414;29;20106;-77
2021/04/24 20:33:38;;;;;;;17.08;7.50;;;14.20;37.30;;;;;;9847309;29;20933;-80
2021/04/24 20:38:34;;;;;;;18.52;7.53;;;;;;;;;;9816322;29;20056;-76
2021/04/24 20:43:29;;;;;;;22.67;7.05;;;15.30;38.00;;;;;;9846455;29;20451;-76
2021/04/24 20:48:23;;;;;;;20.33;7.25;;;15.40;38.60;;;;;;9830390;29;20594;-77
2021/04/24 20:53:16;;;;;;;21.13;7.72;;;14.10;38.20;;;;;;9863933;29;20093;-76
2021/04/24 20:58:11;;;;;;;20.90;7.18;;;14.20;38.70;;;;;;9864219;29;20074;-75
2021/04/24 21:03:05;;;;;;;20.92;7.30;;;15.80;40.20;;;;;;9846026;29;20121;-74
2021/04/24 21:07:59;;;;;;;21.50;7.20;;;15.10;39.80;;;;;;9861914;29;20962;-76
2021/04/24 21:12:53;;;;;;;19.50;7.05;;;15.20;40.70;;;;;;9845237;29;20078;-78
2021/04/24 21:17:48;;;;;;;28.73;8.35;;;14.60;41.20;;;;;;9863447;29;20450;-75
2021/04/24 21:22:43;;;;;;;18.20;7.43;;;14.40;41.80;;;;;;9845681;29;20083;-75
2021/04/24 21:27:37;;;;;;;19.30;7.60;;;;;;;;;;9845661;29;20090;-76
2021/04/24 21:32:31;;;;;;;23.73;7.18;;;12.20;40.50;;;;;;9845836;29;20098;-74
2021/04/24 21:37:26;;;;;;;17.88;7.00;;;13.90;40.80;;;;;;9861998;29;20403;-74
2021/04/24 21:42:20;;;;;;;18.70;7.45;;;14.00;40.90;;;;;;9844427;29;20414;-74
2021/04/24 21:47:14;;;;;;;21.77;8.00;;;15.70;41.00;;;;;;9859596;29;20087;-75
2021/04/24 21:52:08;;;;;;;20.10;7.13;;;14.40;40.70;;;;;;9843970;29;20090;-75
2021/04/24 21:57:03;;;;;;;18.42;6.65;;;14.20;40.60;;;;;;9857935;29;20094;-74
2021/04/24 22:01:57;;;;;;;18.92;7.88;;;15.00;41.90;;;;;;9861986;29;20082;-75
2021/04/24 22:06:52;;;;;;;21.73;7.70;;;14.00;41.70;;;;;;9861873;29;20051;-77
2021/04/24 22:11:47;;;;;;;17.08;6.85;;;14.50;42.00;;;;;;9859614;29;20097;-77
2021/04/24 22:16:42;;;;;;;20.23;7.43;;;;;;;;;;9860933;29;20458;-76
2021/04/24 22:21:35;;;;;;;19.77;7.65;;;14.90;42.70;;;;;;9862214;29;20090;-75
2021/04/24 22:26:30;;;;;;;20.55;7.53;;;;;;;;;;9860943;29;20403;-77
2021/04/24 22:31:24;;;;;;;22.98;7.30;;;14.30;42.80;;;;;;9859480;29;20055;-75
2021/04/24 22:36:18;;;;;;;17.55;6.90;;;14.60;43.00;;;;;;9876753;29;20482;-74
2021/04/24 22:41:12;;;;;;;19.13;6.97;;;14.40;43.20;;;;;;9863005;29;20040;-77
2021/04/24 22:46:07;;;;;;;16.38;7.15;;;15.30;43.70;;;;;;9860544;29;20074;-76
2021/04/24 22:51:02;;;;;;;19.40;6.55;;;14.60;43.40;;;;;;9859242;29;20153;-72
2021/04/24 22:55:57;;;;;;;15.98;6.57;;;13.70;42.50;;;;;;9859637;29;20503;-79
2021/04/24 23:00:51;;;;;;;18.05;6.70;;;14.70;43.70;;;;;;9842974;29;20082;-76
2021/04/24 23:05:47;;;;;;;17.20;6.60;;;13.70;42.90;;;;;;9843560;29;20067;-85
2021/04/24 23:10:41;;;;;;;17.65;5.72;;;14.60;44.00;;;;;;9860010;29;20083;-80
2021/04/24 23:15:36;;;;;;;17.88;7.05;;;14.70;44.80;;;;;;9858914;29;20071;-80
2021/04/24 23:20:30;;;;;;;20.92;7.55;;;14.40;43.10;;;;;;9856850;29;20078;-80
2021/04/24 23:25:25;;;;;;;20.98;7.25;;;13.50;43.30;;;;;;9848943;29;20083;-79
2021/04/24 23:30:19;;;;;;;17.38;7.93;;;13.90;43.70;;;;;;9864943;29;20319;-81
2021/04/24 23:35:16;;;;;;;18.50;7.20;;;13.40;42.90;;;;;;9870984;29;20047;-81
2021/04/24 23:40:12;;;;;;;23.13;7.10;;;13.60;43.20;;;;;;9866765;29;20397;-79
2021/04/24 23:45:07;;;;;;;20.70;8.20;;;13.70;43.30;;;;;;9864875;29;20087;-80
2021/04/24 23:50:01;;;;;;;31.77;8.30;;;15.00;45.10;;;;;;9863144;29;20466;-81
2021/04/24 23:54:56;;;;;;;28.90;8.50;;;13.60;44.00;;;;;;9865406;29;20091;-82
2021/04/24 23:59:49;;;;;;;21.70;8.27;;;13.90;45.10;;;;;;9865897;29;20541;-80
